Time;durP1;ratioP1;P1;durP2;ratioP2;P2;SDS_P1;SDS_P2;PMS_P1;PMS_P2;Temp;Humidity;BMP_temperature;BMP_pressure;BME280_temperature;BME280_humidity;BME280_pressure;Samples;Min_cycle;Max_cycle;Signal;HPM_P1;HPM_P2
2023/11/09 00:02:31;;;;;;;5.90;3.80;;;;;;;5.98;96.33;100279.69;6170797;28;20106;-73
2023/11/09 00:05:32;;;;;;;5.40;2.83;;;;;;;6.00;95.70;100275.28;6170134;28;20133;-73
2023/11/09 00:08:33;;;;;;;10.30;3.13;;;;;;;5.95;95.55;100277.25;6152971;28;20107;-72
2023/11/09 00:11:34;;;;;;;5.50;2.80;;;;;;;5.90;95.63;100273.09;6170040;28;20146;-73
2023/11/09 00:14:38;;;;;;;5.57;3.03;;;;;;;5.86;95.98;100280.13;6167251;28;20054;-72
2023/11/09 00:17:39;;;;;;;4.40;2.33;;;;;;;5.81;95.99;100277.72;6168454;28;20061;-72
2023/11/09 00:20:40;;;;;;;3.13;2.00;;;;;;;5.79;96.23;100276.94;6168841;28;20504;-72
2023/11/09 00:23:43;;;;;;;5.95;2.55;;;;;;;5.81;96.33;100285.50;6172406;28;20051;-76
2023/11/09 00:26:45;;;;;;;3.20;2.00;;;;;;;5.80;96.26;100273.44;6162246;28;20514;-72
2023/11/09 00:29:46;;;;;;;;;;;;;;;5.78;96.56;100279.56;6171590;28;20057;-73
2023/11/09 00:32:47;;;;;;;5.50;2.28;;;;;;;5.80;96.57;100273.44;6191659;28;19922;-73
2023/11/09 00:35:48;;;;;;;4.80;2.10;;;;;;;5.82;96.14;100278.56;6157512;28;20469;-76
2023/11/09 00:38:50;;;;;;;4.03;2.50;;;;;;;5.73;95.60;100278.91;6154255;28;20070;-76
2023/11/09 00:41:51;;;;;;;2.58;1.95;;;;;;;5.71;95.47;100278.13;6182000;28;20469;-73
2023/11/09 00:44:53;;;;;;;2.85;1.90;;;;;;;5.62;95.65;100274.97;6179016;28;20050;-73
2023/11/09 00:47:56;;;;;;;4.63;2.07;;;;;;;5.59;95.89;100274.25;6169847;28;20059;-76
2023/11/09 00:50:57;;;;;;;2.78;1.90;;;;;;;5.56;95.92;100275.22;6163001;28;20054;-76
2023/11/09 00:54:00;;;;;;;3.20;1.88;;;;;;;5.53;96.01;100280.47;6170662;28;20505;-72
2023/11/09 00:57:01;;;;;;;10.80;2.85;;;;;;;5.53;96.08;100270.13;6169936;28;20054;-72
2023/11/09 01:00:03;;;;;;;30.50;7.40;;;;;;;5.41;96.71;100276.59;6187595;28;20409;-76
2023/11/09 01:03:04;;;;;;;26.30;7.35;;;;;;;5.49;96.37;100276.31;6170863;28;20062;-76
2023/11/09 01:06:07;;;;;;;12.27;5.07;;;;;;;5.44;96.53;100266.13;6169785;28;20050;-72
2023/11/09 01:09:08;;;;;;;;;;;;;;;5.43;96.67;100279.13;6161275;28;20386;-72
2023/11/09 01:12:11;;;;;;;14.73;4.30;;;;;;;5.30;96.55;100280.47;6169347;28;19928;-77
2023/11/09 01:15:12;;;;;;;9.38;4.53;;;;;;;5.27;96.41;100271.06;6173251;28;20043;-76
2023/11/09 01:18:12;;;;;;;10.80;4.65;;;;;;;5.30;96.86;100276.13;6169074;28;20097;-77
2023/11/09 01:21:14;;;;;;;4.75;2.97;;;;;;;5.27;96.67;100270.22;6172071;28;20062;-72
2023/11/09 01:24:17;;;;;;;6.68;3.05;;;;;;;5.17;96.67;100278.31;6163276;28;20486;-72
2023/11/09 01:27:18;;;;;;;10.75;2.63;;;;;;;5.15;95.77;100271.53;6154084;28;20059;-76
2023/11/09 01:30:20;;;;;;;6.07;2.67;;;;;;;5.04;96.43;100277.03;6166695;28;20555;-76
2023/11/09 01:33:21;;;;;;;9.32;3.55;;;;;;;5.04;96.77;100275.31;6160753;28;20058;-72
2023/11/09 01:36:22;;;;;;;8.43;3.15;;;;;;;5.08;97.15;100276.03;6167112;28;20079;-76
2023/11/09 01:39:23;;;;;;;4.95;2.70;;;;;;;5.06;96.76;100267.50;6160218;28;20054;-76
2023/11/09 01:42:24;;;;;;;5.45;2.97;;;;;;;5.10;96.75;100282.00;6165431;28;20154;-73
2023/11/09 01:45:25;;;;;;;4.32;2.65;;;;;;;5.14;97.42;100275.00;6172684;28;20478;-76
2023/11/09 01:48:26;;;;;;;6.18;2.83;;;;;;;5.21;97.46;100276.47;6166310;28;20142;-76
2023/11/09 01:51:28;;;;;;;5.38;2.80;;;;;;;5.18;97.44;100272.22;6176142;28;20117;-73
2023/11/09 01:54:31;;;;;;;7.10;3.55;;;;;;;5.11;98.10;100280.28;6172292;28;20413;-73
2023/11/09 01:57:33;;;;;;;3.97;2.40;;;;;;;5.09;98.02;100274.31;6153051;28;20506;-72
2023/11/09 02:00:35;;;;;;;6.32;2.88;;;;;;;5.04;97.71;100274.47;6171330;28;20046;-73
2023/11/09 02:03:36;;;;;;;4.53;2.77;;;;;;;4.99;98.52;100281.53;6174343;28;20153;-72
2023/11/09 02:06:37;;;;;;;4.95;3.13;;;;;;;5.03;97.80;100277.97;6175494;28;20518;-76
2023/11/09 02:09:38;;;;;;;4.55;2.85;;;;;;;5.10;98.02;100282.00;6170561;28;20074;-72
2023/11/09 02:12:39;;;;;;;7.38;3.42;;;;;;;5.02;98.21;100279.72;6165109;28;20106;-76
2023/11/09 02:15:40;;;;;;;4.97;2.90;;;;;;;4.97;98.06;100278.16;6164946;28;20046;-76
2023/11/09 02:18:45;;;;;;;4.25;2.60;;;;;;;5.00;97.62;100286.69;6167535;28;20069;-72
2023/11/09 02:21:51;;;;;;;7.88;3.33;;;;;;;4.93;97.96;100287.75;6155831;28;20062;-76
2023/11/09 02:24:55;;;;;;;5.65;2.97;;;;;;;4.88;98.53;100288.81;6161404;28;20398;-76
2023/11/09 02:27:58;;;;;;;6.35;3.25;;;;;;;4.85;98.58;100290.59;6172860;28;20076;-76
2023/11/09 02:30:59;;;;;;;8.27;3.33;;;;;;;4.85;98.09;100295.78;6174008;28;20051;-73
2023/11/09 02:34:05;;;;;;;8.93;3.03;;;;;;;4.74;98.32;100278.94;6174471;28;20055;-76
2023/11/09 02:37:08;;;;;;;9.07;4.10;;;;;;;4.82;98.00;100297.63;6175160;28;20054;-76
2023/11/09 02:40:12;;;;;;;9.55;3.30;;;;;;;4.77;98.73;100291.75;6173848;28;20042;-76
2023/11/09 02:43:12;;;;;;;8.30;2.95;;;;;;;4.75;98.32;100291.81;6170776;28;20066;-72
2023/11/09 02:46:14;;;;;;;5.68;3.25;;;;;;;4.81;98.64;100293.34;6166051;28;20087;-76
2023/11/09 02:49:15;;;;;;;6.13;3.47;;;;;;;4.80;98.35;100289.94;6167288;28;20055;-76
2023/11/09 02:52:16;;;;;;;3.45;2.67;;;;;;;4.84;98.37;100295.84;6174105;28;20074;-76
2023/11/09 02:55:18;;;;;;;8.48;3.05;;;;;;;4.88;97.96;100300.03;6174188;28;20046;-75
2023/11/09 02:58:19;;;;;;;;;;;;;;;4.87;98.51;100300.91;6166006;28;20051;-76
2023/11/09 03:01:22;;;;;;;3.63;2.42;;;;;;;4.83;98.19;100292.38;6151608;28;19923;-71
2023/11/09 03:04:23;;;;;;;4.72;2.83;;;;;;;4.82;98.15;100295.06;6151039;28;20048;-73
2023/11/09 03:07:25;;;;;;;5.78;2.58;;;;;;;4.85;97.89;100290.59;6172839;28;20054;-71
2023/11/09 03:10:26;;;;;;;6.28;3.05;;;;;;;4.85;97.37;100298.34;6173576;28;20185;-72
2023/11/09 03:13:27;;;;;;;5.68;2.40;;;;;;;4.78;97.43;100289.13;6155990;28;20055;-71
2023/11/09 03:16:28;;;;;;;5.35;2.78;;;;;;;4.74;97.38;100294.47;6150993;29;20094;-78
2023/11/09 03:19:29;;;;;;;6.13;3.53;;;;;;;4.61;98.07;100294.00;6166764;28;20134;-77
2023/11/09 03:22:30;;;;;;;6.85;3.30;;;;;;;4.55;98.28;100299.38;6157693;28;20504;-73
2023/11/09 03:25:33;;;;;;;5.82;3.10;;;;;;;4.46;98.38;100299.66;6156803;28;20399;-73
2023/11/09 03:28:34;;;;;;;8.68;3.30;;;;;;;4.41;98.61;100294.66;6165420;28;20105;-73
2023/11/09 03:31:35;;;;;;;6.50;3.15;;;;;;;4.47;98.49;100304.78;6150435;28;20063;-74
2023/11/09 03:34:41;;;;;;;5.38;3.25;;;;;;;4.39;98.55;100307.63;6189090;28;20134;-73
2023/11/09 03:37:46;;;;;;;8.68;3.60;;;;;;;4.42;98.47;100312.66;6173760;28;20053;-73
2023/11/09 03:40:49;;;;;;;5.60;2.80;;;;;;;4.39;98.04;100305.03;6174299;28;20062;-77
2023/11/09 03:43:51;;;;;;;6.28;3.30;;;;;;;4.37;98.13;100300.81;6172742;28;20452;-77
2023/11/09 03:46:52;;;;;;;5.75;3.35;;;;;;;4.38;98.32;100298.16;6172585;28;20062;-73
2023/11/09 03:49:53;;;;;;;4.85;3.13;;;;;;;4.39;98.50;100306.78;6172814;28;20050;-77
2023/11/09 03:52:54;;;;;;;5.43;3.30;;;;;;;4.34;98.10;100299.16;6173429;28;20117;-77
2023/11/09 03:55:57;;;;;;;4.35;3.00;;;;;;;4.32;98.14;100298.34;6167615;28;20080;-72
2023/11/09 03:59:00;;;;;;;6.95;2.83;;;;;;;4.29;97.92;100295.88;6180063;28;20093;-77
2023/11/09 04:02:01;;;;;;;6.07;2.80;;;;;;;4.23;98.01;100301.22;6177987;28;20077;-72
2023/11/09 04:05:03;;;;;;;4.03;2.75;;;;;;;4.30;98.30;100294.97;6192905;28;20520;-77
2023/11/09 04:08:04;;;;;;;4.30;2.80;;;;;;;4.26;97.38;100292.53;6188152;28;20141;-73
2023/11/09 04:11:05;;;;;;;5.28;2.80;;;;;;;4.30;97.12;100294.13;6189599;28;20062;-77
2023/11/09 04:14:07;;;;;;;4.73;3.07;;;;;;;4.26;97.08;100298.53;6189036;28;20100;-77
2023/11/09 04:17:08;;;;;;;6.38;3.10;;;;;;;4.24;97.03;100302.91;6172514;28;20058;-77
2023/11/09 04:20:09;;;;;;;9.30;2.97;;;;;;;4.18;96.70;100301.38;6175848;28;20054;-77
2023/11/09 04:23:10;;;;;;;6.18;2.55;;;;;;;4.12;97.20;100306.72;6174362;28;20527;-77
2023/11/09 04:26:12;;;;;;;11.30;3.42;;;;;;;4.15;98.18;100304.03;6168037;28;20179;-77
2023/11/09 04:29:13;;;;;;;6.60;2.65;;;;;;;4.16;98.57;100308.34;6172052;28;20050;-77
2023/11/09 04:32:16;;;;;;;5.78;3.17;;;;;;;4.15;99.15;100316.97;6181799;28;20544;-77
2023/11/09 04:35:20;;;;;;;5.55;3.70;;;;;;;4.15;99.51;100319.53;6169031;28;20042;-72
2023/11/09 04:38:23;;;;;;;5.38;2.97;;;;;;;4.14;100.00;100320.44;6176923;28;20062;-77
2023/11/09 04:41:25;;;;;;;4.88;3.10;;;;;;;4.22;100.00;100322.78;6166857;28;20047;-77
2023/11/09 04:44:28;;;;;;;6.97;3.78;;;;;;;4.22;100.00;100326.22;6187964;28;20042;-77
2023/11/09 04:47:29;;;;;;;4.47;3.08;;;;;;;4.27;100.00;100323.50;6187665;28;20054;-74
2023/11/09 04:50:38;;;;;;;4.30;3.17;;;;;;;4.24;100.00;100315.81;6211062;28;20061;-77
2023/11/09 04:53:42;;;;;;;6.22;3.60;;;;;;;4.19;100.00;100326.31;6161301;28;20061;-73
2023/11/09 05:09:28;;;;;;;6.55;2.70;;;;;;;4.14;100.00;100317.00;6171103;28;20057;-73
2023/11/09 05:12:30;;;;;;;10.90;3.30;;;;;;;4.13;100.00;100323.91;6180298;28;20050;-77
2023/11/09 05:15:33;;;;;;;10.15;3.50;;;;;;;4.12;100.00;100329.09;6193934;28;20088;-77
2023/11/09 05:18:38;;;;;;;5.88;3.42;;;;;;;4.15;100.00;100332.44;6194174;28;20050;-77
2023/11/09 05:21:41;;;;;;;6.88;3.35;;;;;;;4.01;100.00;100340.59;6195103;28;20058;-77
2023/11/09 05:24:42;;;;;;;8.77;3.75;;;;;;;3.92;100.00;100340.03;6161512;28;20490;-73
2023/11/09 05:27:43;;;;;;;9.93;3.75;;;;;;;4.01;100.00;100342.34;6164513;28;20057;-73
2023/11/09 05:30:44;;;;;;;5.30;3.28;;;;;;;3.90;100.00;100344.41;6194295;28;20046;-72
2023/11/09 05:33:45;;;;;;;8.00;3.67;;;;;;;3.98;100.00;100345.88;6193307;28;20060;-77
2023/11/09 05:36:48;;;;;;;6.60;3.30;;;;;;;3.94;100.00;100354.59;6173839;28;20047;-77
2023/11/09 05:39:49;;;;;;;6.10;3.50;;;;;;;3.99;100.00;100350.13;6168610;28;20051;-72
2023/11/09 05:42:50;;;;;;;5.60;3.38;;;;;;;4.05;100.00;100343.94;6162040;28;20093;-77
2023/11/09 05:45:51;;;;;;;6.38;3.42;;;;;;;4.04;100.00;100352.59;6171083;28;20130;-77
2023/11/09 05:48:52;;;;;;;5.13;3.30;;;;;;;4.11;100.00;100354.09;6171036;28;20062;-77
2023/11/09 05:51:56;;;;;;;4.03;2.90;;;;;;;4.07;100.00;100360.25;6181739;28;20386;-77
2023/11/09 05:54:57;;;;;;;4.50;3.15;;;;;;;4.20;100.00;100365.88;6191785;28;20057;-73
2023/11/09 05:58:01;;;;;;;7.15;4.18;;;;;;;4.16;100.00;100367.75;6194607;28;20055;-74
2023/11/09 06:01:02;;;;;;;8.63;3.70;;;;;;;4.10;100.00;100378.25;6194776;28;20081;-73
2023/11/09 06:04:03;;;;;;;6.13;3.67;;;;;;;4.09;100.00;100381.69;6197468;28;20043;-73
2023/11/09 06:07:08;;;;;;;8.20;3.88;;;;;;;4.00;100.00;100389.72;6197752;28;20042;-74
2023/11/09 06:10:09;;;;;;;7.00;3.30;;;;;;;4.15;100.00;100385.84;6198616;28;20050;-73
2023/11/09 06:13:10;;;;;;;6.80;3.72;;;;;;;3.99;100.00;100394.03;6197661;28;20089;-72
2023/11/09 06:16:10;;;;;;;15.38;4.07;;;;;;;4.02;100.00;100396.53;6198617;28;20054;-72
2023/11/09 06:19:14;;;;;;;5.60;3.33;;;;;;;4.02;100.00;100386.22;6197439;28;20046;-77
2023/11/09 06:22:17;;;;;;;16.85;4.30;;;;;;;4.12;100.00;100397.13;6198375;28;20054;-73
2023/11/09 06:25:18;;;;;;;6.43;3.85;;;;;;;4.18;100.00;100404.69;6198864;28;20104;-73
2023/11/09 06:28:19;;;;;;;6.80;3.90;;;;;;;4.28;100.00;100397.50;6197281;28;20050;-73
2023/11/09 06:31:22;;;;;;;7.85;4.80;;;;;;;4.46;100.00;100403.03;6197006;28;20054;-73
2023/11/09 06:34:23;;;;;;;14.23;4.43;;;;;;;4.53;100.00;100404.53;6198290;28;20074;-73
2023/11/09 06:37:24;;;;;;;7.68;3.83;;;;;;;4.58;100.00;100400.06;6196916;28;20153;-73
2023/11/09 06:40:31;;;;;;;7.07;3.43;;;;;;;4.66;100.00;100398.09;6198315;28;20081;-76
2023/11/09 06:43:32;;;;;;;8.77;4.10;;;;;;;4.78;100.00;100408.06;6197894;28;20157;-77
2023/11/09 06:46:33;;;;;;;6.50;3.85;;;;;;;4.86;100.00;100407.81;6197804;28;20491;-76
2023/11/09 06:49:34;;;;;;;7.07;4.38;;;;;;;4.99;100.00;100408.28;6197249;28;20077;-73
2023/11/09 06:52:35;;;;;;;5.45;3.88;;;;;;;4.96;100.00;100410.94;6196310;28;20050;-76
2023/11/09 06:55:36;;;;;;;8.77;4.05;;;;;;;5.05;100.00;100410.66;6196543;28;20046;-76
2023/11/09 06:58:39;;;;;;;11.60;5.00;;;;;;;5.15;100.00;100399.13;6176608;28;20378;-76
2023/11/09 07:01:41;;;;;;;7.90;4.95;;;;;;;5.28;100.00;100403.88;6173480;28;20105;-76
2023/11/09 07:04:43;;;;;;;10.38;4.43;;;;;;;5.33;100.00;100417.50;6173028;28;20133;-73
2023/11/09 07:07:44;;;;;;;10.07;4.75;;;;;;;5.34;100.00;100420.03;6171775;28;20137;-77
2023/11/09 07:10:44;;;;;;;7.38;4.13;;;;;;;5.59;100.00;100416.63;6173075;28;20089;-76
2023/11/09 07:13:45;;;;;;;6.60;4.00;;;;;;;5.74;100.00;100428.19;6173133;28;20061;-73
2023/11/09 07:16:48;;;;;;;9.57;4.38;;;;;;;5.88;100.00;100418.19;6172019;28;20053;-77
2023/11/09 07:19:50;;;;;;;6.15;3.08;;;;;;;5.75;100.00;100420.38;6173435;28;20141;-77
2023/11/09 07:22:56;;;;;;;12.30;4.77;;;;;;;5.95;100.00;100414.50;6173153;28;20062;-77
2023/11/09 07:25:58;;;;;;;5.25;3.88;;;;;;;6.12;100.00;100413.91;6172994;28;20489;-77
2023/11/09 07:28:59;;;;;;;9.43;4.95;;;;;;;6.40;99.99;100413.72;6172891;28;20061;-74
2023/11/09 07:32:01;;;;;;;11.23;5.07;;;;;;;6.63;99.35;100410.22;6171710;28;20074;-73
2023/11/09 07:35:02;;;;;;;10.00;5.07;;;;;;;6.68;99.27;100411.81;6172655;28;20047;-74
2023/11/09 07:38:02;;;;;;;9.57;5.28;;;;;;;6.65;99.06;100416.19;6171212;28;20082;-73
2023/11/09 07:41:03;;;;;;;11.00;5.00;;;;;;;6.85;98.41;100419.75;6172829;28;20129;-77
2023/11/09 07:44:05;;;;;;;7.63;4.40;;;;;;;6.99;97.78;100416.63;6171340;28;20046;-74
2023/11/09 07:47:08;;;;;;;10.43;4.07;;;;;;;7.30;97.58;100405.81;6172315;28;20073;-73
2023/11/09 07:50:09;;;;;;;8.27;4.18;;;;;;;7.39;96.43;100420.16;6172278;28;20055;-73
2023/11/09 07:53:11;;;;;;;8.27;4.43;;;;;;;7.44;95.67;100415.63;6171285;28;20082;-73
2023/11/09 07:56:14;;;;;;;7.78;3.65;;;;;;;7.56;96.99;100416.88;6170956;28;20057;-74
2023/11/09 07:59:16;;;;;;;9.80;4.30;;;;;;;7.54;97.24;100416.09;6172496;28;20054;-73
2023/11/09 08:02:19;;;;;;;7.28;4.07;;;;;;;7.81;96.89;100421.84;6171948;28;20414;-77
2023/11/09 08:05:20;;;;;;;9.02;4.32;;;;;;;8.06;96.11;100419.81;6172229;28;20085;-77
2023/11/09 08:08:21;;;;;;;8.45;3.85;;;;;;;8.10;95.04;100420.53;6170834;28;20394;-74
2023/11/09 08:11:23;;;;;;;6.38;3.85;;;;;;;8.16;94.57;100420.28;6170737;28;20051;-77
2023/11/09 08:14:26;;;;;;;9.43;4.05;;;;;;;8.39;93.98;100415.78;6171924;28;20335;-77
2023/11/09 08:17:27;;;;;;;7.85;4.15;;;;;;;8.52;93.41;100413.47;6171713;28;20051;-77
2023/11/09 08:20:29;;;;;;;8.77;4.13;;;;;;;8.61;92.20;100415.66;6171862;28;20046;-73
2023/11/09 08:23:33;;;;;;;16.30;6.90;;;;;;;8.85;91.75;100421.44;6170493;28;20061;-74
2023/11/09 08:26:34;;;;;;;9.05;4.65;;;;;;;9.03;90.94;100430.13;6170089;28;20109;-74
2023/11/09 08:29:38;;;;;;;8.65;4.80;;;;;;;8.94;90.80;100425.38;6170432;28;20077;-77
2023/11/09 08:32:41;;;;;;;7.90;3.72;;;;;;;8.97;89.40;100433.84;6171609;28;20072;-77
2023/11/09 08:35:43;;;;;;;5.57;3.38;;;;;;;9.12;88.80;100434.03;6170266;28;20058;-77
2023/11/09 08:38:47;;;;;;;7.28;3.97;;;;;;;8.97;88.10;100446.03;6171682;28;20058;-77
2023/11/09 08:41:48;;;;;;;4.30;3.33;;;;;;;9.17;88.72;100442.47;6170117;28;20130;-77
2023/11/09 08:44:51;;;;;;;6.93;3.95;;;;;;;9.27;88.16;100443.72;6171956;28;20047;-77
2023/11/09 08:47:52;;;;;;;6.13;3.92;;;;;;;9.38;88.18;100436.19;6171255;28;20417;-77
2023/11/09 08:50:56;;;;;;;7.30;4.20;;;;;;;9.35;88.18;100448.50;6171138;28;20067;-77
2023/11/09 08:53:56;;;;;;;7.28;4.18;;;;;;;9.59;87.49;100446.47;6170026;28;20073;-77
2023/11/09 08:57:00;;;;;;;6.05;3.42;;;;;;;9.62;87.25;100444.53;6169905;28;20478;-78
2023/11/09 09:00:01;;;;;;;7.40;3.72;;;;;;;9.64;87.21;100450.53;6171405;28;20112;-77
2023/11/09 09:03:02;;;;;;;7.32;3.63;;;;;;;9.79;86.97;100450.66;6169954;28;20086;-77
2023/11/09 09:06:06;;;;;;;6.88;3.40;;;;;;;10.16;85.89;100457.41;6171900;28;20129;-77
2023/11/09 09:09:14;;;;;;;7.65;3.60;;;;;;;10.05;85.51;100449.31;6169755;28;20502;-73
2023/11/09 09:12:15;;;;;;;3.85;2.55;;;;;;;10.15;84.17;100449.66;6171092;28;20058;-74
2023/11/09 09:15:18;;;;;;;7.30;4.10;;;;;;;10.47;84.76;100446.19;6169700;28;20058;-77
2023/11/09 09:18:23;;;;;;;3.92;2.55;;;;;;;10.40;84.09;100444.03;6170091;28;20062;-78
2023/11/09 09:21:24;;;;;;;11.32;3.22;;;;;;;10.46;83.88;100454.97;6169832;28;20054;-77
2023/11/09 09:24:25;;;;;;;4.03;2.80;;;;;;;10.69;84.04;100442.44;6169864;28;20078;-77
2023/11/09 09:27:26;;;;;;;6.07;3.35;;;;;;;10.75;84.08;100433.38;6169607;28;20055;-77
2023/11/09 09:30:29;;;;;;;5.28;2.80;;;;;;;10.97;82.79;100438.25;6170759;28;20109;-73
2023/11/09 09:33:31;;;;;;;4.63;2.80;;;;;;;11.05;80.32;100431.66;6170807;28;20145;-77
2023/11/09 09:36:36;;;;;;;;;;;;;;;10.59;80.42;100438.63;6171664;28;20490;-77
2023/11/09 09:39:42;;;;;;;4.88;2.63;;;;;;;10.89;81.36;100430.84;6175694;28;19926;-77
2023/11/09 09:42:47;;;;;;;5.20;2.95;;;;;;;11.19;80.97;100430.88;6175172;28;20457;-78
2023/11/09 09:45:59;;;;;;;4.10;2.60;;;;;;;11.35;79.64;100424.78;6190213;28;20082;-77
2023/11/09 09:49:03;;;;;;;5.18;3.28;;;;;;;11.64;78.65;100431.75;6173928;28;20050;-77
2023/11/09 09:52:04;;;;;;;4.35;2.65;;;;;;;11.53;78.18;100431.56;6173825;28;20409;-77
2023/11/09 09:55:08;;;;;;;4.40;2.23;;;;;;;11.56;78.27;100433.13;6174942;28;20457;-74
2023/11/09 09:58:11;;;;;;;4.47;2.28;;;;;;;11.70;77.60;100435.78;6174050;28;20057;-78
2023/11/09 10:01:12;;;;;;;3.13;2.38;;;;;;;11.72;76.17;100422.63;6174829;28;20047;-77
2023/11/09 10:04:15;;;;;;;3.55;2.42;;;;;;;11.88;77.73;100434.69;6173891;28;20057;-78
2023/11/09 10:07:18;;;;;;;5.07;2.60;;;;;;;11.93;76.29;100430.97;6174921;28;20061;-77
2023/11/09 10:10:19;;;;;;;3.88;2.30;;;;;;;11.82;74.72;100428.94;6173907;28;20055;-73
2023/11/09 10:13:23;;;;;;;3.72;2.10;;;;;;;12.15;74.68;100415.66;6174521;28;20113;-74
2023/11/09 10:16:31;;;;;;;4.70;2.20;;;;;;;12.26;73.74;100415.81;6174308;28;20486;-73
2023/11/09 10:19:41;;;;;;;7.35;2.08;;;;;;;12.58;73.86;100417.31;6174616;28;20090;-74
2023/11/09 10:22:43;;;;;;;5.85;2.42;;;;;;;12.33;74.42;100424.09;6174237;28;20054;-73
2023/11/09 10:25:44;;;;;;;9.00;2.40;;;;;;;12.48;73.70;100412.69;6174503;28;20131;-74
2023/11/09 10:28:55;;;;;;;3.63;2.00;;;;;;;12.69;73.41;100401.78;6172968;28;20059;-77
2023/11/09 10:32:00;;;;;;;4.28;2.83;;;;;;;12.92;73.29;100410.78;6174074;28;20445;-74
2023/11/09 10:35:02;;;;;;;7.53;2.63;;;;;;;12.97;73.33;100413.94;6174540;28;20094;-74
2023/11/09 10:38:03;;;;;;;4.57;2.80;;;;;;;13.21;73.03;100405.41;6174241;28;20061;-74
2023/11/09 10:41:08;;;;;;;11.40;4.78;;;;;;;13.16;71.94;100404.84;6173938;28;20072;-77
2023/11/09 10:44:10;;;;;;;19.45;8.77;;;;;;;13.06;72.91;100402.84;6172894;28;20105;-74
2023/11/09 10:47:13;;;;;;;13.77;6.30;;;;;;;13.52;72.67;100406.81;6172075;28;20059;-78
2023/11/09 10:50:15;;;;;;;11.57;5.55;;;;;;;13.21;72.29;100400.16;6174073;28;20051;-77
2023/11/09 10:53:21;;;;;;;25.70;9.15;;;;;;;13.38;72.75;100385.94;6172601;28;20054;-74
2023/11/09 10:56:22;;;;;;;20.50;8.20;;;;;;;13.56;73.33;100394.38;6172278;28;20431;-73
2023/11/09 10:59:24;;;;;;;10.15;4.70;;;;;;;13.68;73.08;100391.72;6172475;28;20055;-73
2023/11/09 11:02:30;;;;;;;6.03;3.45;;;;;;;13.69;72.18;100377.69;6172159;28;20189;-77
2023/11/09 11:05:31;;;;;;;4.82;2.90;;;;;;;13.60;72.58;100382.72;6173580;28;20059;-77
2023/11/09 11:08:38;;;;;;;4.18;2.67;;;;;;;13.48;72.89;100382.59;6172064;28;20094;-77
2023/11/09 11:11:47;;;;;;;4.10;2.20;;;;;;;13.45;71.98;100372.34;6173176;28;20051;-77
2023/11/09 11:14:51;;;;;;;8.82;2.58;;;;;;;13.66;71.92;100375.25;6173096;28;20047;-73
2023/11/09 11:18:05;;;;;;;5.95;2.17;;;;;;;13.60;70.73;100365.19;6172317;28;20134;-77
2023/11/09 11:21:28;;;;;;;2.95;2.05;;;;;;;13.82;69.28;100358.50;6173016;28;20486;-73
2023/11/09 11:24:34;;;;;;;4.40;2.17;;;;;;;13.65;70.83;100364.88;6171665;28;20101;-73
2023/11/09 11:27:37;;;;;;;6.05;2.58;;;;;;;13.74;69.17;100368.66;6173468;28;20054;-73
2023/11/09 11:30:39;;;;;;;3.55;2.60;;;;;;;14.00;69.15;100362.44;6173120;28;20047;-73
2023/11/09 11:33:40;;;;;;;4.57;2.40;;;;;;;14.03;69.34;100359.59;6171528;28;20058;-74
2023/11/09 11:36:47;;;;;;;3.53;2.30;;;;;;;13.88;69.82;100351.03;6171757;28;20186;-74
2023/11/09 11:39:48;;;;;;;2.75;1.88;;;;;;;13.88;67.69;100350.19;6172846;28;20057;-73
2023/11/09 11:42:58;;;;;;;3.25;2.35;;;;;;;13.99;68.50;100347.63;6172765;28;20042;-77
2023/11/09 11:46:08;;;;;;;3.60;2.20;;;;;;;14.12;70.03;100347.59;6171170;28;20671;-77
2023/11/09 11:49:16;;;;;;;2.10;1.80;;;;;;;14.08;67.62;100344.38;6172752;28;20054;-77
2023/11/09 11:52:20;;;;;;;4.80;2.13;;;;;;;14.39;68.44;100330.81;6171134;28;20117;-76
2023/11/09 11:55:21;;;;;;;5.03;2.28;;;;;;;14.32;67.97;100335.69;6172315;28;20400;-73
2023/11/09 11:58:27;;;;;;;6.80;1.80;;;;;;;14.44;66.42;100342.66;6172300;28;20078;-73
2023/11/09 12:01:29;;;;;;;4.60;2.10;;;;;;;14.13;66.89;100330.09;6171587;28;20422;-72
2023/11/09 12:04:31;;;;;;;5.43;1.63;;;;;;;14.07;67.68;100342.69;6171009;28;20046;-73
2023/11/09 12:07:40;;;;;;;;;;;;;;;13.79;68.63;100343.78;6172794;28;20129;-74
2023/11/09 12:10:44;;;;;;;3.17;2.13;;;;;;;13.96;67.15;100340.00;6172089;28;19948;-73
2023/11/09 12:13:46;;;;;;;2.03;1.38;;;;;;;13.99;66.02;100338.94;6170985;28;20062;-73
2023/11/09 12:16:47;;;;;;;3.17;1.70;;;;;;;14.05;65.07;100335.88;6172544;28;20121;-73
2023/11/09 12:19:49;;;;;;;97.47;41.13;;;;;;;14.01;66.00;100335.25;6170875;28;20521;-76
2023/11/09 12:22:50;;;;;;;28.98;18.88;;;;;;;13.88;66.24;100331.81;6171781;28;20057;-72
2023/11/09 12:25:54;;;;;;;4.10;2.50;;;;;;;13.90;65.55;100333.38;6172214;28;20457;-72
2023/11/09 12:28:54;;;;;;;20.92;14.13;;;;;;;14.00;66.34;100317.84;6170604;28;20069;-72
2023/11/09 12:31:57;;;;;;;8.43;5.30;;;;;;;14.11;66.40;100330.19;6171645;28;20050;-73
2023/11/09 12:35:01;;;;;;;4.85;2.45;;;;;;;14.21;66.17;100315.47;6171603;28;20053;-73
2023/11/09 12:38:03;;;;;;;2.78;1.85;;;;;;;13.90;65.58;100322.91;6170322;28;20453;-73
2023/11/09 12:41:06;;;;;;;4.10;1.20;;;;;;;14.19;63.01;100314.75;6170589;28;20054;-73
2023/11/09 12:44:08;;;;;;;1.73;1.25;;;;;;;14.15;63.93;100315.06;6170187;28;20521;-76
2023/11/09 12:47:09;;;;;;;3.90;2.03;;;;;;;14.22;65.40;100309.25;6170112;28;20494;-76
2023/11/09 12:50:16;;;;;;;6.15;2.72;;;;;;;13.91;65.73;100308.00;6170370;28;20051;-73
2023/11/09 12:53:18;;;;;;;5.13;1.75;;;;;;;14.18;64.92;100310.41;6171425;28;20515;-72
2023/11/09 12:56:21;;;;;;;3.58;2.40;;;;;;;13.69;65.08;100304.28;6170266;28;20082;-73
2023/11/09 12:59:25;;;;;;;3.88;1.98;;;;;;;13.78;65.67;100300.16;6171278;28;20076;-76
2023/11/09 13:02:40;;;;;;;3.95;1.75;;;;;;;13.79;64.81;100303.59;6170021;28;20050;-75
2023/11/09 13:05:42;;;;;;;25.60;13.30;;;;;;;13.85;64.59;100304.00;6170002;28;20564;-76
2023/11/09 13:08:43;;;;;;;21.95;12.10;;;;;;;13.72;65.14;100300.59;6170453;28;20054;-76
2023/11/09 13:11:46;;;;;;;28.35;16.13;;;;;;;13.73;63.71;100285.69;6172467;28;20102;-76
2023/11/09 13:15:08;;;;;;;5.55;3.92;;;;;;;13.55;65.35;100286.03;6176505;28;20057;-76
2023/11/09 13:18:12;;;;;;;3.77;2.73;;;;;;;13.64;65.16;100293.25;6174769;28;20509;-76
2023/11/09 13:21:18;;;;;;;3.03;1.90;;;;;;;13.72;64.29;100279.63;6175675;28;20828;-73
2023/11/09 13:24:28;;;;;;;7.90;2.50;;;;;;;13.79;65.89;100282.63;6175862;28;20402;-73
2023/11/09 13:27:29;;;;;;;7.57;4.38;;;;;;;13.84;66.19;100270.03;6175709;28;20070;-73
2023/11/09 13:30:30;;;;;;;3.85;2.15;;;;;;;13.48;65.14;100267.25;6174701;28;20494;-73
2023/11/09 13:33:39;;;;;;;3.00;2.10;;;;;;;13.30;64.92;100269.41;6175958;28;20050;-73
2023/11/09 13:36:57;;;;;;;3.25;2.42;;;;;;;13.17;64.30;100263.28;6175798;28;20046;-76
2023/11/09 13:40:35;;;;;;;5.28;3.03;;;;;;;13.08;66.28;100267.38;6175559;28;20055;-76
2023/11/09 13:43:34;;;;;;;4.00;2.17;;;;;;;13.03;67.14;100268.63;6172432;28;20101;-74
2023/11/09 13:46:39;;;;;;;3.83;1.80;;;;;;;12.94;66.48;100266.63;6175212;28;20050;-76
2023/11/09 13:49:40;;;;;;;4.53;2.20;;;;;;;12.93;66.76;100259.69;6175109;28;20107;-76
2023/11/09 13:52:49;;;;;;;7.10;3.30;;;;;;;12.75;67.00;100259.19;6175186;28;20494;-76
2023/11/09 13:59:12;;;;;;;22.05;9.35;;;;;;;12.72;66.55;100248.91;6174579;28;20047;-76
2023/11/09 14:02:16;;;;;;;6.18;3.53;;;;;;;12.38;66.71;100241.50;6174818;28;20086;-75
2023/11/09 14:05:17;;;;;;;6.15;3.00;;;;;;;12.39;67.57;100245.78;6174878;28;20050;-76
2023/11/09 14:08:20;;;;;;;4.25;2.25;;;;;;;12.36;67.34;100243.38;6175083;28;20053;-76
2023/11/09 14:11:24;;;;;;;6.72;3.28;;;;;;;12.21;67.58;100242.59;6175158;28;20497;-73
2023/11/09 14:14:28;;;;;;;45.58;23.00;;;;;;;12.03;67.42;100236.78;6174658;28;20490;-76
2023/11/09 14:17:34;;;;;;;37.13;23.08;;;;;;;12.14;67.22;100237.88;6173472;28;20109;-75
2023/11/09 14:20:35;;;;;;;6.20;3.63;;;;;;;12.08;67.30;100232.06;6174798;28;20108;-76
2023/11/09 14:23:38;;;;;;;7.68;1.60;;;;;;;12.02;66.90;100229.84;6172416;28;20051;-73
2023/11/09 14:26:44;;;;;;;3.17;1.92;;;;;;;11.91;67.31;100234.94;6189336;28;20058;-76
2023/11/09 14:29:48;;;;;;;10.02;3.35;;;;;;;11.85;67.33;100220.44;6189438;28;20050;-76
2023/11/09 14:32:51;;;;;;;4.82;2.53;;;;;;;11.82;68.16;100228.50;6174472;28;20501;-77